sensor_id;sensor_type;location;lat;lon;timestamp;pressure;altitude;pressure_sealevel;temperature;humidity
61814;BME280;57055;-35.296;149.168;2023-03-19T00:00:45;95534.15;;;21.72;39.44
61814;BME280;57055;-35.296;149.168;2023-03-19T00:03:14;95533.33;;;22.16;39.31
61814;BME280;57055;-35.296;149.168;2023-03-19T00:05:50;95533.45;;;22.06;39.59
61814;BME280;57055;-35.296;149.168;2023-03-19T00:08:19;95526.74;;;22.16;39.97
61814;BME280;57055;-35.296;149.168;2023-03-19T00:10:48;95523.72;;;21.86;41.08
61814;BME280;57055;-35.296;149.168;2023-03-19T00:13:18;95525.04;;;22.10;42.74
61814;BME280;57055;-35.296;149.168;2023-03-19T00:15:47;95518.71;;;22.06;43.22
61814;BME280;57055;-35.296;149.168;2023-03-19T00:18:16;95517.74;;;22.18;44.26
61814;BME280;57055;-35.296;149.168;2023-03-19T00:20:45;95511.90;;;22.38;42.55
61814;BME280;57055;-35.296;149.168;2023-03-19T00:23:14;95509.69;;;22.52;44.42
61814;BME280;57055;-35.296;149.168;2023-03-19T00:25:42;95505.99;;;22.69;44.33
61814;BME280;57055;-35.296;149.168;2023-03-19T00:28:11;95502.32;;;22.75;44.41
61814;BME280;57055;-35.296;149.168;2023-03-19T00:30:40;95502.79;;;22.27;43.52
61814;BME280;57055;-35.296;149.168;2023-03-19T00:33:09;95498.71;;;22.61;45.53
61814;BME280;57055;-35.296;149.168;2023-03-19T00:35:39;95495.50;;;22.74;45.71
61814;BME280;57055;-35.296;149.168;2023-03-19T00:38:08;95493.78;;;22.51;44.91
61814;BME280;57055;-35.296;149.168;2023-03-19T00:40:37;95491.53;;;23.09;39.16
61814;BME280;57055;-35.296;149.168;2023-03-19T00:43:07;95488.53;;;23.11;39.97
61814;BME280;57055;-35.296;149.168;2023-03-19T00:45:35;95484.14;;;23.57;37.64
61814;BME280;57055;-35.296;149.168;2023-03-19T00:48:05;95479.98;;;23.60;35.45
61814;BME280;57055;-35.296;149.168;2023-03-19T00:50:34;95477.21;;;24.34;35.17
61814;BME280;57055;-35.296;149.168;2023-03-19T00:53:03;95478.96;;;23.97;33.67
61814;BME280;57055;-35.296;149.168;2023-03-19T00:55:32;95481.34;;;24.31;34.29
61814;BME280;57055;-35.296;149.168;2023-03-19T00:58:02;95484.71;;;24.47;34.03
61814;BME280;57055;-35.296;149.168;2023-03-19T01:00:31;95475.33;;;24.26;35.34
61814;BME280;57055;-35.296;149.168;2023-03-19T01:03:00;95472.14;;;24.24;33.82
61814;BME280;57055;-35.296;149.168;2023-03-19T01:05:30;95478.19;;;24.40;31.54
61814;BME280;57055;-35.296;149.168;2023-03-19T01:07:59;95470.33;;;24.76;31.48
61814;BME280;57055;-35.296;149.168;2023-03-19T01:10:28;95464.06;;;24.62;30.22
61814;BME280;57055;-35.296;149.168;2023-03-19T01:12:57;95464.23;;;24.96;30.45
61814;BME280;57055;-35.296;149.168;2023-03-19T01:15:27;95459.80;;;25.27;30.72
61814;BME280;57055;-35.296;149.168;2023-03-19T01:17:56;95459.43;;;25.30;31.91
61814;BME280;57055;-35.296;149.168;2023-03-19T01:20:25;95452.72;;;25.18;31.08
61814;BME280;57055;-35.296;149.168;2023-03-19T01:22:54;95452.98;;;25.56;29.94
61814;BME280;57055;-35.296;149.168;2023-03-19T01:25:24;95445.29;;;25.63;30.90
61814;BME280;57055;-35.296;149.168;2023-03-19T01:27:53;95447.24;;;25.74;31.55
61814;BME280;57055;-35.296;149.168;2023-03-19T01:30:22;95446.38;;;25.50;28.39
61814;BME280;57055;-35.296;149.168;2023-03-19T01:32:51;95442.67;;;25.93;29.62
61814;BME280;57055;-35.296;149.168;2023-03-19T01:35:21;95436.85;;;25.70;32.75
61814;BME280;57055;-35.296;149.168;2023-03-19T01:37:50;95440.50;;;25.83;31.43
61814;BME280;57055;-35.296;149.168;2023-03-19T01:40:19;95435.28;;;25.84;31.66
61814;BME280;57055;-35.296;149.168;2023-03-19T01:42:54;95438.29;;;25.62;31.25
61814;BME280;57055;-35.296;149.168;2023-03-19T01:45:41;95431.29;;;26.00;28.78
61814;BME280;57055;-35.296;149.168;2023-03-19T01:48:19;95418.58;;;26.17;30.54
61814;BME280;57055;-35.296;149.168;2023-03-19T01:50:50;95426.40;;;26.16;32.59
61814;BME280;57055;-35.296;149.168;2023-03-19T01:53:23;95422.69;;;26.03;31.61
61814;BME280;57055;-35.296;149.168;2023-03-19T01:55:56;95416.30;;;26.17;29.33
61814;BME280;57055;-35.296;149.168;2023-03-19T01:58:28;95407.93;;;26.32;30.02
61814;BME280;57055;-35.296;149.168;2023-03-19T02:00:58;95402.72;;;26.82;29.08
61814;BME280;57055;-35.296;149.168;2023-03-19T02:03:27;95398.42;;;26.59;30.74
61814;BME280;57055;-35.296;149.168;2023-03-19T02:05:56;95400.99;;;26.46;31.30
61814;BME280;57055;-35.296;149.168;2023-03-19T02:08:25;95393.54;;;26.49;31.24
61814;BME280;57055;-35.296;149.168;2023-03-19T02:10:56;95387.77;;;26.77;26.99
61814;BME280;57055;-35.296;149.168;2023-03-19T02:13:25;95388.37;;;27.45;25.45
61814;BME280;57055;-35.296;149.168;2023-03-19T02:15:55;95381.36;;;27.56;25.07
61814;BME280;57055;-35.296;149.168;2023-03-19T02:18:25;95382.03;;;27.72;24.71
61814;BME280;57055;-35.296;149.168;2023-03-19T02:21:00;95379.04;;;27.86;24.21
61814;BME280;57055;-35.296;149.168;2023-03-19T02:23:36;95373.21;;;27.96;24.39
61814;BME280;57055;-35.296;149.168;2023-03-19T02:26:09;95371.65;;;28.22;24.90
61814;BME280;57055;-35.296;149.168;2023-03-19T02:28:40;95367.58;;;28.24;24.22
61814;BME280;57055;-35.296;149.168;2023-03-19T02:31:10;95368.50;;;28.22;23.81
61814;BME280;57055;-35.296;149.168;2023-03-19T02:33:39;95364.09;;;28.87;23.16
61814;BME280;57055;-35.296;149.168;2023-03-19T02:36:13;95361.67;;;28.61;23.32
61814;BME280;57055;-35.296;149.168;2023-03-19T02:38:44;95355.45;;;28.74;22.46
61814;BME280;57055;-35.296;149.168;2023-03-19T02:41:14;95347.64;;;28.79;22.84
61814;BME280;57055;-35.296;149.168;2023-03-19T02:43:43;95347.91;;;29.03;22.93
61814;BME280;57055;-35.296;149.168;2023-03-19T02:46:13;95344.42;;;29.10;22.88
61814;BME280;57055;-35.296;149.168;2023-03-19T02:48:42;95339.90;;;29.05;23.09
61814;BME280;57055;-35.296;149.168;2023-03-19T02:51:11;95337.03;;;29.11;22.08
61814;BME280;57055;-35.296;149.168;2023-03-19T02:53:40;95332.54;;;29.07;22.58
61814;BME280;57055;-35.296;149.168;2023-03-19T02:56:10;95319.69;;;29.20;22.57
61814;BME280;57055;-35.296;149.168;2023-03-19T02:58:39;95325.54;;;29.32;21.52
61814;BME280;57055;-35.296;149.168;2023-03-19T03:01:08;95325.90;;;29.70;21.02
61814;BME280;57055;-35.296;149.168;2023-03-19T03:03:37;95322.16;;;29.71;21.39
61814;BME280;57055;-35.296;149.168;2023-03-19T03:06:07;95317.34;;;29.89;21.25
61814;BME280;57055;-35.296;149.168;2023-03-19T03:08:37;95307.29;;;29.61;20.61
61814;BME280;57055;-35.296;149.168;2023-03-19T03:11:06;95306.07;;;30.08;20.97
61814;BME280;57055;-35.296;149.168;2023-03-19T03:13:35;95309.30;;;29.72;21.58
61814;BME280;57055;-35.296;149.168;2023-03-19T03:16:04;95299.90;;;29.74;20.85
61814;BME280;57055;-35.296;149.168;2023-03-19T03:18:33;95292.30;;;30.38;21.09
61814;BME280;57055;-35.296;149.168;2023-03-19T03:21:02;95298.81;;;30.22;20.21
61814;BME280;57055;-35.296;149.168;2023-03-19T03:23:32;95292.03;;;30.12;20.69
61814;BME280;57055;-35.296;149.168;2023-03-19T03:26:01;95284.31;;;30.24;19.74
61814;BME280;57055;-35.296;149.168;2023-03-19T03:28:30;95280.93;;;30.26;18.62
61814;BME280;57055;-35.296;149.168;2023-03-19T03:31:00;95278.81;;;30.28;18.61
61814;BME280;57055;-35.296;149.168;2023-03-19T03:33:30;95281.57;;;30.65;20.33
61814;BME280;57055;-35.296;149.168;2023-03-19T03:35:59;95268.58;;;30.15;20.20
61814;BME280;57055;-35.296;149.168;2023-03-19T03:38:28;95271.84;;;30.32;21.09
61814;BME280;57055;-35.296;149.168;2023-03-19T03:40:57;95262.80;;;30.21;22.38
61814;BME280;57055;-35.296;149.168;2023-03-19T03:43:26;95262.77;;;30.33;22.03
61814;BME280;57055;-35.296;149.168;2023-03-19T03:45:55;95261.19;;;30.43;20.69
61814;BME280;57055;-35.296;149.168;2023-03-19T03:48:24;95256.81;;;30.24;19.89
61814;BME280;57055;-35.296;149.168;2023-03-19T03:50:54;95249.76;;;30.33;19.91
61814;BME280;57055;-35.296;149.168;2023-03-19T03:53:23;95251.06;;;30.47;20.28
61814;BME280;57055;-35.296;149.168;2023-03-19T03:55:52;95241.59;;;30.38;18.68
61814;BME280;57055;-35.296;149.168;2023-03-19T03:58:21;95238.15;;;30.32;19.47
61814;BME280;57055;-35.296;149.168;2023-03-19T04:00:50;95237.06;;;30.34;19.44
61814;BME280;57055;-35.296;149.168;2023-03-19T04:03:19;95234.49;;;30.31;19.16
61814;BME280;57055;-35.296;149.168;2023-03-19T04:05:49;95240.60;;;30.25;18.17
61814;BME280;57055;-35.296;149.168;2023-03-19T04:08:18;95223.72;;;30.40;20.05
61814;BME280;57055;-35.296;149.168;2023-03-19T04:10:48;95218.49;;;30.41;19.43
61814;BME280;57055;-35.296;149.168;2023-03-19T04:13:16;95224.83;;;30.56;18.00
61814;BME280;57055;-35.296;149.168;2023-03-19T04:15:45;95215.43;;;30.52;20.69
61814;BME280;57055;-35.296;149.168;2023-03-19T04:18:15;95214.27;;;30.40;18.33
61814;BME280;57055;-35.296;149.168;2023-03-19T04:20:44;95205.30;;;30.42;18.75
61814;BME280;57055;-35.296;149.168;2023-03-19T04:23:13;95207.89;;;30.47;19.81
61814;BME280;57055;-35.296;149.168;2023-03-19T04:25:42;95213.20;;;30.49;19.15
61814;BME280;57055;-35.296;149.168;2023-03-19T04:28:11;95200.19;;;30.59;19.32
61814;BME280;57055;-35.296;149.168;2023-03-19T04:30:40;95198.37;;;30.52;18.68
61814;BME280;57055;-35.296;149.168;2023-03-19T04:33:10;95193.00;;;30.65;18.07
61814;BME280;57055;-35.296;149.168;2023-03-19T04:35:39;95198.41;;;30.65;18.35
61814;BME280;57055;-35.296;149.168;2023-03-19T04:38:08;95197.53;;;30.69;17.83
61814;BME280;57055;-35.296;149.168;2023-03-19T04:40:37;95194.93;;;30.87;18.34
61814;BME280;57055;-35.296;149.168;2023-03-19T04:43:07;95194.08;;;30.86;18.52
61814;BME280;57055;-35.296;149.168;2023-03-19T04:45:36;95185.43;;;30.77;18.55
61814;BME280;57055;-35.296;149.168;2023-03-19T04:48:05;95191.13;;;30.91;17.77
61814;BME280;57055;-35.296;149.168;2023-03-19T04:50:34;95181.33;;;30.60;19.34
61814;BME280;57055;-35.296;149.168;2023-03-19T04:53:03;95180.53;;;30.85;18.73
61814;BME280;57055;-35.296;149.168;2023-03-19T04:55:32;95184.42;;;30.80;17.84
61814;BME280;57055;-35.296;149.168;2023-03-19T04:58:02;95175.70;;;30.69;17.44
61814;BME280;57055;-35.296;149.168;2023-03-19T05:00:31;95175.57;;;30.76;18.34
61814;BME280;57055;-35.296;149.168;2023-03-19T05:03:00;95172.62;;;30.89;18.19
61814;BME280;57055;-35.296;149.168;2023-03-19T05:05:29;95170.25;;;30.60;16.75
61814;BME280;57055;-35.296;149.168;2023-03-19T05:07:58;95161.14;;;30.89;16.63
61814;BME280;57055;-35.296;149.168;2023-03-19T05:10:28;95165.63;;;30.75;16.87
61814;BME280;57055;-35.296;149.168;2023-03-19T05:12:57;95163.01;;;30.76;18.22
61814;BME280;57055;-35.296;149.168;2023-03-19T05:15:26;95162.65;;;30.75;18.00
61814;BME280;57055;-35.296;149.168;2023-03-19T05:17:55;95159.32;;;30.49;17.72
61814;BME280;57055;-35.296;149.168;2023-03-19T05:20:24;95159.91;;;30.83;18.21
61814;BME280;57055;-35.296;149.168;2023-03-19T05:22:53;95156.85;;;30.82;17.32
61814;BME280;57055;-35.296;149.168;2023-03-19T05:25:23;95153.85;;;30.45;18.39
61814;BME280;57055;-35.296;149.168;2023-03-19T05:27:52;95157.77;;;30.79;17.87
61814;BME280;57055;-35.296;149.168;2023-03-19T05:30:21;95161.83;;;30.78;18.00
61814;BME280;57055;-35.296;149.168;2023-03-19T05:32:50;95161.28;;;30.43;18.61
61814;BME280;57055;-35.296;149.168;2023-03-19T05:35:19;95161.60;;;30.69;18.23
61814;BME280;57055;-35.296;149.168;2023-03-19T05:37:48;95151.64;;;30.53;17.59
61814;BME280;57055;-35.296;149.168;2023-03-19T05:40:18;95154.41;;;30.75;18.37
61814;BME280;57055;-35.296;149.168;2023-03-19T05:42:47;95148.13;;;30.71;18.13
61814;BME280;57055;-35.296;149.168;2023-03-19T05:45:17;95147.69;;;30.61;19.05
61814;BME280;57055;-35.296;149.168;2023-03-19T05:47:48;95149.46;;;30.47;19.81
61814;BME280;57055;-35.296;149.168;2023-03-19T05:50:18;95148.60;;;30.93;19.97
61814;BME280;57055;-35.296;149.168;2023-03-19T05:52:46;95149.58;;;30.54;19.60
61814;BME280;57055;-35.296;149.168;2023-03-19T05:55:15;95145.22;;;30.19;20.80
61814;BME280;57055;-35.296;149.168;2023-03-19T05:57:45;95151.38;;;30.08;20.41
61814;BME280;57055;-35.296;149.168;2023-03-19T06:00:15;95151.01;;;30.34;20.77
61814;BME280;57055;-35.296;149.168;2023-03-19T06:02:44;95150.06;;;30.24;20.87
61814;BME280;57055;-35.296;149.168;2023-03-19T06:05:13;95151.60;;;29.99;19.87
61814;BME280;57055;-35.296;149.168;2023-03-19T06:07:42;95151.10;;;30.01;20.09
61814;BME280;57055;-35.296;149.168;2023-03-19T06:10:12;95150.06;;;30.24;21.61
61814;BME280;57055;-35.296;149.168;2023-03-19T06:12:41;95150.69;;;29.87;21.25
61814;BME280;57055;-35.296;149.168;2023-03-19T06:15:10;95147.08;;;30.02;21.45
61814;BME280;57055;-35.296;149.168;2023-03-19T06:17:40;95144.82;;;29.92;20.73
61814;BME280;57055;-35.296;149.168;2023-03-19T06:20:10;95150.00;;;30.14;20.41
61814;BME280;57055;-35.296;149.168;2023-03-19T06:22:39;95148.17;;;29.77;21.01
61814;BME280;57055;-35.296;149.168;2023-03-19T06:25:09;95147.72;;;29.97;20.81
61814;BME280;57055;-35.296;149.168;2023-03-19T06:27:37;95151.82;;;29.59;21.94
61814;BME280;57055;-35.296;149.168;2023-03-19T06:30:08;95153.26;;;29.81;22.42
61814;BME280;57055;-35.296;149.168;2023-03-19T06:32:37;95150.17;;;30.00;21.07
61814;BME280;57055;-35.296;149.168;2023-03-19T06:35:06;95148.07;;;29.71;21.82
61814;BME280;57055;-35.296;149.168;2023-03-19T06:37:35;95155.66;;;29.80;22.15
61814;BME280;57055;-35.296;149.168;2023-03-19T06:40:05;95157.89;;;29.67;22.63
61814;BME280;57055;-35.296;149.168;2023-03-19T06:42:34;95156.97;;;29.58;22.78
61814;BME280;57055;-35.296;149.168;2023-03-19T06:45:04;95153.78;;;29.58;21.80
61814;BME280;57055;-35.296;149.168;2023-03-19T06:47:34;95154.30;;;29.45;21.24
61814;BME280;57055;-35.296;149.168;2023-03-19T06:50:04;95157.10;;;29.58;22.46
61814;BME280;57055;-35.296;149.168;2023-03-19T06:52:33;95154.82;;;29.55;22.20
61814;BME280;57055;-35.296;149.168;2023-03-19T06:55:03;95157.48;;;29.48;22.19
61814;BME280;57055;-35.296;149.168;2023-03-19T06:57:32;95157.27;;;29.20;21.85
61814;BME280;57055;-35.296;149.168;2023-03-19T07:00:02;95158.94;;;29.65;22.36
61814;BME280;57055;-35.296;149.168;2023-03-19T07:02:32;95162.34;;;29.46;20.26
61814;BME280;57055;-35.296;149.168;2023-03-19T07:05:01;95162.48;;;29.44;19.79
61814;BME280;57055;-35.296;149.168;2023-03-19T07:07:30;95169.20;;;29.56;20.08
61814;BME280;57055;-35.296;149.168;2023-03-19T07:09:59;95166.61;;;29.26;20.30
61814;BME280;57055;-35.296;149.168;2023-03-19T07:12:28;95168.46;;;29.68;20.34
61814;BME280;57055;-35.296;149.168;2023-03-19T07:14:58;95171.35;;;29.12;20.49
61814;BME280;57055;-35.296;149.168;2023-03-19T07:17:27;95175.85;;;29.28;21.94
61814;BME280;57055;-35.296;149.168;2023-03-19T07:19:56;95176.89;;;29.18;20.63
61814;BME280;57055;-35.296;149.168;2023-03-19T07:22:25;95178.20;;;29.12;21.35
61814;BME280;57055;-35.296;149.168;2023-03-19T07:24:54;95178.34;;;29.31;21.19
61814;BME280;57055;-35.296;149.168;2023-03-19T07:27:24;95183.56;;;29.48;21.87
61814;BME280;57055;-35.296;149.168;2023-03-19T07:29:53;95185.28;;;28.96;22.55
61814;BME280;57055;-35.296;149.168;2023-03-19T07:32:22;95187.07;;;29.07;22.07
61814;BME280;57055;-35.296;149.168;2023-03-19T07:34:51;95189.81;;;28.76;23.64
61814;BME280;57055;-35.296;149.168;2023-03-19T07:37:20;95187.91;;;28.79;23.48
61814;BME280;57055;-35.296;149.168;2023-03-19T07:39:50;95190.74;;;28.76;22.32
61814;BME280;57055;-35.296;149.168;2023-03-19T07:42:19;95191.14;;;28.68;23.02
61814;BME280;57055;-35.296;149.168;2023-03-19T07:44:48;95192.19;;;28.49;23.51
61814;BME280;57055;-35.296;149.168;2023-03-19T07:47:17;95193.16;;;28.35;23.65
61814;BME280;57055;-35.296;149.168;2023-03-19T07:49:47;95195.51;;;27.96;25.39
61814;BME280;57055;-35.296;149.168;2023-03-19T07:52:16;95197.98;;;28.02;25.00
61814;BME280;57055;-35.296;149.168;2023-03-19T07:54:46;95198.27;;;27.73;26.43
61814;BME280;57055;-35.296;149.168;2023-03-19T07:57:14;95195.89;;;27.42;30.99
61814;BME280;57055;-35.296;149.168;2023-03-19T07:59:44;95198.03;;;27.64;31.44
61814;BME280;57055;-35.296;149.168;2023-03-19T08:02:13;95192.70;;;27.21;30.35
61814;BME280;57055;-35.296;149.168;2023-03-19T08:04:43;95197.46;;;27.57;35.28
61814;BME280;57055;-35.296;149.168;2023-03-19T08:07:11;95198.79;;;26.93;32.80
61814;BME280;57055;-35.296;149.168;2023-03-19T08:09:41;95199.38;;;26.57;36.03
61814;BME280;57055;-35.296;149.168;2023-03-19T08:12:11;95199.60;;;26.41;36.69
61814;BME280;57055;-35.296;149.168;2023-03-19T08:14:40;95201.75;;;26.76;33.81
61814;BME280;57055;-35.296;149.168;2023-03-19T08:17:09;95202.99;;;26.62;36.39
61814;BME280;57055;-35.296;149.168;2023-03-19T08:19:38;95201.92;;;26.16;35.76
61814;BME280;57055;-35.296;149.168;2023-03-19T08:22:08;95204.89;;;26.13;35.80
61814;BME280;57055;-35.296;149.168;2023-03-19T08:24:37;95203.96;;;26.28;38.77
61814;BME280;57055;-35.296;149.168;2023-03-19T08:27:06;95204.19;;;26.05;38.68
61814;BME280;57055;-35.296;149.168;2023-03-19T08:29:35;95206.18;;;25.97;37.39
61814;BME280;57055;-35.296;149.168;2023-03-19T08:32:05;95204.10;;;25.94;34.78
61814;BME280;57055;-35.296;149.168;2023-03-19T08:34:34;95205.96;;;25.87;36.79
61814;BME280;57055;-35.296;149.168;2023-03-19T08:37:03;95206.53;;;25.69;36.01
61814;BME280;57055;-35.296;149.168;2023-03-19T08:39:32;95211.29;;;25.62;37.97
61814;BME280;57055;-35.296;149.168;2023-03-19T08:42:02;95213.62;;;25.42;37.47
61814;BME280;57055;-35.296;149.168;2023-03-19T08:44:31;95213.30;;;25.49;38.25
61814;BME280;57055;-35.296;149.168;2023-03-19T08:47:00;95214.71;;;25.38;37.96
61814;BME280;57055;-35.296;149.168;2023-03-19T08:49:29;95215.15;;;25.10;37.53
61814;BME280;57055;-35.296;149.168;2023-03-19T08:51:59;95213.70;;;25.48;39.17
61814;BME280;57055;-35.296;149.168;2023-03-19T08:54:28;95217.14;;;25.16;40.04
61814;BME280;57055;-35.296;149.168;2023-03-19T08:56:58;95218.82;;;25.24;40.83
61814;BME280;57055;-35.296;149.168;2023-03-19T08:59:27;95222.83;;;24.89;36.42
61814;BME280;57055;-35.296;149.168;2023-03-19T09:01:57;95219.97;;;25.07;35.91
61814;BME280;57055;-35.296;149.168;2023-03-19T09:04:26;95222.66;;;24.95;36.21
61814;BME280;57055;-35.296;149.168;2023-03-19T09:06:55;95222.50;;;24.85;34.56
61814;BME280;57055;-35.296;149.168;2023-03-19T09:09:25;95232.89;;;24.72;36.50
61814;BME280;57055;-35.296;149.168;2023-03-19T09:11:56;95234.87;;;24.58;36.28
61814;BME280;57055;-35.296;149.168;2023-03-19T09:14:24;95239.18;;;24.49;35.69
61814;BME280;57055;-35.296;149.168;2023-03-19T09:16:53;95243.00;;;24.43;33.95
61814;BME280;57055;-35.296;149.168;2023-03-19T09:19:23;95246.45;;;24.38;34.04
61814;BME280;57055;-35.296;149.168;2023-03-19T09:21:52;95249.01;;;24.28;33.02
61814;BME280;57055;-35.296;149.168;2023-03-19T09:24:21;95254.18;;;24.10;32.43
61814;BME280;57055;-35.296;149.168;2023-03-19T09:26:51;95259.18;;;23.97;32.87
61814;BME280;57055;-35.296;149.168;2023-03-19T09:29:21;95264.29;;;23.92;32.82
61814;BME280;57055;-35.296;149.168;2023-03-19T09:31:50;95269.24;;;24.12;32.96
61814;BME280;57055;-35.296;149.168;2023-03-19T09:34:19;95274.16;;;24.33;33.24
61814;BME280;57055;-35.296;149.168;2023-03-19T09:36:48;95277.08;;;24.24;33.36
61814;BME280;57055;-35.296;149.168;2023-03-19T09:39:18;95281.26;;;24.17;33.64
61814;BME280;57055;-35.296;149.168;2023-03-19T09:41:56;95283.33;;;23.83;33.56
61814;BME280;57055;-35.296;149.168;2023-03-19T09:44:29;95288.83;;;23.98;33.92
61814;BME280;57055;-35.296;149.168;2023-03-19T09:47:07;95290.76;;;23.89;34.28
61814;BME280;57055;-35.296;149.168;2023-03-19T09:49:43;95293.01;;;23.65;34.57
61814;BME280;57055;-35.296;149.168;2023-03-19T09:52:23;95298.89;;;23.79;35.07
61814;BME280;57055;-35.296;149.168;2023-03-19T09:54:57;95296.88;;;23.69;35.54
61814;BME280;57055;-35.296;149.168;2023-03-19T09:57:28;95298.11;;;23.65;35.91
61814;BME280;57055;-35.296;149.168;2023-03-19T09:59:57;95300.83;;;23.57;36.01
61814;BME280;57055;-35.296;149.168;2023-03-19T10:02:38;95309.04;;;23.46;36.34
61814;BME280;57055;-35.296;149.168;2023-03-19T10:05:18;95307.86;;;23.44;36.24
61814;BME280;57055;-35.296;149.168;2023-03-19T10:08:02;95310.95;;;23.20;36.10
61814;BME280;57055;-35.296;149.168;2023-03-19T10:10:47;95315.98;;;23.48;35.75
61814;BME280;57055;-35.296;149.168;2023-03-19T10:13:28;95322.08;;;23.36;35.74
61814;BME280;57055;-35.296;149.168;2023-03-19T10:16:01;95324.78;;;23.32;35.84
61814;BME280;57055;-35.296;149.168;2023-03-19T10:18:33;95326.78;;;23.21;36.27
61814;BME280;57055;-35.296;149.168;2023-03-19T10:21:04;95325.93;;;23.13;36.71
61814;BME280;57055;-35.296;149.168;2023-03-19T10:23:42;95327.97;;;23.04;36.64
61814;BME280;57055;-35.296;149.168;2023-03-19T10:26:14;95332.22;;;23.02;36.65
61814;BME280;57055;-35.296;149.168;2023-03-19T10:28:50;95331.23;;;22.91;36.58
61814;BME280;57055;-35.296;149.168;2023-03-19T10:31:27;95334.18;;;22.81;36.71
61814;BME280;57055;-35.296;149.168;2023-03-19T10:34:04;95336.14;;;23.05;36.19
61814;BME280;57055;-35.296;149.168;2023-03-19T10:36:38;95334.72;;;22.80;36.50
61814;BME280;57055;-35.296;149.168;2023-03-19T10:39:08;95334.99;;;22.46;35.74
61814;BME280;57055;-35.296;149.168;2023-03-19T10:41:45;95336.95;;;22.90;35.62
61814;BME280;57055;-35.296;149.168;2023-03-19T10:44:26;95338.00;;;22.64;35.84
61814;BME280;57055;-35.296;149.168;2023-03-19T10:46:58;95338.45;;;22.38;35.71
61814;BME280;57055;-35.296;149.168;2023-03-19T10:49:27;95335.21;;;22.62;35.69
61814;BME280;57055;-35.296;149.168;2023-03-19T10:51:57;95337.02;;;22.72;35.54
61814;BME280;57055;-35.296;149.168;2023-03-19T10:54:27;95334.43;;;22.46;35.81
61814;BME280;57055;-35.296;149.168;2023-03-19T10:56:57;95334.34;;;22.69;35.74
61814;BME280;57055;-35.296;149.168;2023-03-19T10:59:32;95333.32;;;22.62;35.48
61814;BME280;57055;-35.296;149.168;2023-03-19T11:02:16;95336.49;;;22.25;35.91
61814;BME280;57055;-35.296;149.168;2023-03-19T11:04:45;95336.40;;;22.41;36.10
61814;BME280;57055;-35.296;149.168;2023-03-19T11:07:18;95337.12;;;22.31;36.37
61814;BME280;57055;-35.296;149.168;2023-03-19T11:09:48;95336.91;;;22.10;36.44
61814;BME280;57055;-35.296;149.168;2023-03-19T11:12:20;95337.66;;;22.23;36.42
61814;BME280;57055;-35.296;149.168;2023-03-19T11:14:51;95337.17;;;22.09;36.44
61814;BME280;57055;-35.296;149.168;2023-03-19T11:17:23;95337.91;;;22.14;36.63
61814;BME280;57055;-35.296;149.168;2023-03-19T11:19:54;95338.36;;;22.12;36.46
61814;BME280;57055;-35.296;149.168;2023-03-19T11:22:25;95341.94;;;21.80;36.86
61814;BME280;57055;-35.296;149.168;2023-03-19T11:24:59;95345.27;;;21.77;36.67
61814;BME280;57055;-35.296;149.168;2023-03-19T11:27:30;95342.54;;;21.77;36.67
61814;BME280;57055;-35.296;149.168;2023-03-19T11:29:59;95342.40;;;21.98;36.75
61814;BME280;57055;-35.296;149.168;2023-03-19T11:32:39;95341.78;;;22.01;37.22
61814;BME280;57055;-35.296;149.168;2023-03-19T11:35:17;95340.75;;;21.73;37.45
61814;BME280;57055;-35.296;149.168;2023-03-19T11:37:54;95339.31;;;21.86;37.33
61814;BME280;57055;-35.296;149.168;2023-03-19T11:40:32;95339.50;;;21.60;37.36
61814;BME280;57055;-35.296;149.168;2023-03-19T11:44:18;95342.83;;;21.60;37.34
61814;BME280;57055;-35.296;149.168;2023-03-19T11:46:55;95342.11;;;21.62;37.54
61814;BME280;57055;-35.296;149.168;2023-03-19T11:49:53;95338.80;;;21.44;37.35
61814;BME280;57055;-35.296;149.168;2023-03-19T11:52:32;95344.90;;;21.34;37.28
61814;BME280;57055;-35.296;149.168;2023-03-19T11:55:18;95344.48;;;21.39;37.87
61814;BME280;57055;-35.296;149.168;2023-03-19T11:58:03;95344.54;;;21.11;38.01
61814;BME280;57055;-35.296;149.168;2023-03-19T12:00:38;95346.22;;;21.39;38.06
61814;BME280;57055;-35.296;149.168;2023-03-19T12:03:37;95349.28;;;21.41;38.24
61814;BME280;57055;-35.296;149.168;2023-03-19T12:06:23;95353.90;;;21.41;38.43
61814;BME280;57055;-35.296;149.168;2023-03-19T12:09:02;95357.47;;;21.32;38.34
61814;BME280;57055;-35.296;149.168;2023-03-19T12:11:38;95361.95;;;20.99;38.56
61814;BME280;57055;-35.296;149.168;2023-03-19T12:14:19;95365.08;;;21.15;38.38
61814;BME280;57055;-35.296;149.168;2023-03-19T12:17:04;95366.20;;;21.15;38.61
61814;BME280;57055;-35.296;149.168;2023-03-19T12:19:50;95371.99;;;21.20;38.75
61814;BME280;57055;-35.296;149.168;2023-03-19T12:22:37;95367.63;;;21.08;39.48
61814;BME280;57055;-35.296;149.168;2023-03-19T12:25:25;95367.41;;;21.02;39.79
61814;BME280;57055;-35.296;149.168;2023-03-19T12:28:02;95369.98;;;20.96;40.10
61814;BME280;57055;-35.296;149.168;2023-03-19T12:30:40;95370.40;;;20.89;40.25
61814;BME280;57055;-35.296;149.168;2023-03-19T12:33:27;95367.98;;;20.84;40.38
61814;BME280;57055;-35.296;149.168;2023-03-19T12:36:00;95364.32;;;20.81;40.38
61814;BME280;57055;-35.296;149.168;2023-03-19T12:38:36;95361.94;;;20.59;40.04
61814;BME280;57055;-35.296;149.168;2023-03-19T12:41:08;95363.27;;;20.81;40.03
61814;BME280;57055;-35.296;149.168;2023-03-19T12:43:45;95360.38;;;20.79;39.92
61814;BME280;57055;-35.296;149.168;2023-03-19T12:46:22;95365.03;;;20.79;39.91
61814;BME280;57055;-35.296;149.168;2023-03-19T12:48:55;95364.52;;;20.82;39.85
61814;BME280;57055;-35.296;149.168;2023-03-19T12:51:29;95365.16;;;20.81;39.81